sensor_id;sensor_type;location;lat;lon;timestamp;pressure;altitude;pressure_sealevel;temperature;humidity
14689;BME280;7432;48.728;9.154;2023-05-01T00:01:25;144259.69;;;9.94;82.54
14689;BME280;7432;48.728;9.154;2023-05-01T00:03:51;144266.88;;;9.97;82.72
14689;BME280;7432;48.728;9.154;2023-05-01T00:06:18;144241.50;;;9.87;83.71
14689;BME280;7432;48.728;9.154;2023-05-01T00:08:46;144254.81;;;9.92;83.97
14689;BME280;7432;48.728;9.154;2023-05-01T00:11:12;144242.72;;;9.87;84.31
14689;BME280;7432;48.728;9.154;2023-05-01T00:13:39;144251.19;;;9.91;84.41
14689;BME280;7432;48.728;9.154;2023-05-01T00:16:09;144249.97;;;9.90;84.58
14689;BME280;7432;48.728;9.154;2023-05-01T00:18:37;144254.81;;;9.92;83.87
14689;BME280;7432;48.728;9.154;2023-05-01T00:21:03;144245.16;;;9.88;84.26
14689;BME280;7432;48.728;9.154;2023-05-01T00:23:30;144216.09;;;9.76;84.91
14689;BME280;7432;48.728;9.154;2023-05-01T00:25:58;144217.31;;;9.77;85.29
14689;BME280;7432;48.728;9.154;2023-05-01T00:28:24;144193.16;;;9.67;85.70
14689;BME280;7432;48.728;9.154;2023-05-01T00:30:50;144171.38;;;9.58;85.25
14689;BME280;7432;48.728;9.154;2023-05-01T00:33:17;144183.47;;;9.63;85.36
14689;BME280;7432;48.728;9.154;2023-05-01T00:35:43;144199.19;;;9.69;85.61
14689;BME280;7432;48.728;9.154;2023-05-01T00:38:10;144185.88;;;9.64;85.66
14689;BME280;7432;48.728;9.154;2023-05-01T00:40:40;144167.75;;;9.56;86.24
14689;BME280;7432;48.728;9.154;2023-05-01T00:43:09;144166.56;;;9.56;86.58
14689;BME280;7432;48.728;9.154;2023-05-01T00:45:35;144170.16;;;9.57;86.30
14689;BME280;7432;48.728;9.154;2023-05-01T00:48:02;144158.06;;;9.52;86.26
14689;BME280;7432;48.728;9.154;2023-05-01T00:50:29;144153.25;;;9.50;86.19
14689;BME280;7432;48.728;9.154;2023-05-01T00:52:55;144160.50;;;9.53;86.33
14689;BME280;7432;48.728;9.154;2023-05-01T00:55:22;144160.50;;;9.53;86.40
14689;BME280;7432;48.728;9.154;2023-05-01T00:57:49;144158.06;;;9.52;86.09
14689;BME280;7432;48.728;9.154;2023-05-01T01:00:16;144177.41;;;9.60;85.97
14689;BME280;7432;48.728;9.154;2023-05-01T01:02:43;144177.41;;;9.60;85.92
14689;BME280;7432;48.728;9.154;2023-05-01T01:05:11;144190.72;;;9.66;86.28
14689;BME280;7432;48.728;9.154;2023-05-01T01:07:41;144181.06;;;9.62;85.46
14689;BME280;7432;48.728;9.154;2023-05-01T01:10:17;144179.84;;;9.61;85.50
14689;BME280;7432;48.728;9.154;2023-05-01T01:12:51;144183.47;;;9.63;85.86
14689;BME280;7432;48.728;9.154;2023-05-01T01:15:29;144195.53;;;9.68;85.79
14689;BME280;7432;48.728;9.154;2023-05-01T01:18:06;144206.47;;;9.72;84.73
14689;BME280;7432;48.728;9.154;2023-05-01T01:20:37;144200.41;;;9.70;84.75
14689;BME280;7432;48.728;9.154;2023-05-01T01:23:28;144220.94;;;9.78;85.40
14689;BME280;7432;48.728;9.154;2023-05-01T01:26:27;144211.28;;;9.74;85.46
14689;BME280;7432;48.728;9.154;2023-05-01T01:29:08;144210.06;;;9.74;85.12
14689;BME280;7432;48.728;9.154;2023-05-01T01:31:48;144210.06;;;9.74;85.60
14689;BME280;7432;48.728;9.154;2023-05-01T01:34:22;144210.06;;;9.74;85.44
14689;BME280;7432;48.728;9.154;2023-05-01T01:36:55;144212.50;;;9.75;85.12
14689;BME280;7432;48.728;9.154;2023-05-01T01:39:29;144194.31;;;9.67;85.66
14689;BME280;7432;48.728;9.154;2023-05-01T01:41:57;144208.84;;;9.73;85.87
14689;BME280;7432;48.728;9.154;2023-05-01T01:44:29;144205.22;;;9.72;86.52
14689;BME280;7432;48.728;9.154;2023-05-01T01:46:59;144210.06;;;9.74;86.30
14689;BME280;7432;48.728;9.154;2023-05-01T01:49:29;144219.75;;;9.78;86.08
14689;BME280;7432;48.728;9.154;2023-05-01T01:51:57;144227.03;;;9.81;85.30
14689;BME280;7432;48.728;9.154;2023-05-01T01:54:29;144224.59;;;9.80;85.87
14689;BME280;7432;48.728;9.154;2023-05-01T01:56:58;144247.53;;;9.89;85.61
14689;BME280;7432;48.728;9.154;2023-05-01T01:59:29;144240.28;;;9.86;85.60
14689;BME280;7432;48.728;9.154;2023-05-01T02:01:57;144234.22;;;9.84;84.97
14689;BME280;7432;48.728;9.154;2023-05-01T02:04:24;144241.50;;;9.87;85.27
14689;BME280;7432;48.728;9.154;2023-05-01T02:06:55;144234.22;;;9.84;84.87
14689;BME280;7432;48.728;9.154;2023-05-01T02:09:23;144231.84;;;9.83;85.63
14689;BME280;7432;48.728;9.154;2023-05-01T02:11:52;144236.66;;;9.85;85.57
14689;BME280;7432;48.728;9.154;2023-05-01T02:14:20;144243.94;;;9.88;86.19
14689;BME280;7432;48.728;9.154;2023-05-01T02:16:49;144249.97;;;9.90;85.41
14689;BME280;7432;48.728;9.154;2023-05-01T02:19:16;144248.75;;;9.90;86.07
14689;BME280;7432;48.728;9.154;2023-05-01T02:21:44;144256.03;;;9.93;85.47
14689;BME280;7432;48.728;9.154;2023-05-01T02:24:12;144251.19;;;9.91;85.99
14689;BME280;7432;48.728;9.154;2023-05-01T02:26:42;144248.75;;;9.90;85.75
14689;BME280;7432;48.728;9.154;2023-05-01T02:29:12;144248.75;;;9.90;85.03
14689;BME280;7432;48.728;9.154;2023-05-01T02:31:38;144258.44;;;9.94;84.91
14689;BME280;7432;48.728;9.154;2023-05-01T02:34:04;144274.16;;;10.00;84.61
14689;BME280;7432;48.728;9.154;2023-05-01T02:36:31;144286.25;;;10.05;84.18
14689;BME280;7432;48.728;9.154;2023-05-01T02:38:58;144299.53;;;10.11;84.88
14689;BME280;7432;48.728;9.154;2023-05-01T02:41:26;144301.97;;;10.12;84.29
14689;BME280;7432;48.728;9.154;2023-05-01T02:43:57;144320.16;;;10.20;84.13
14689;BME280;7432;48.728;9.154;2023-05-01T02:46:26;144311.72;;;10.16;84.23
14689;BME280;7432;48.728;9.154;2023-05-01T02:48:53;144317.78;;;10.19;83.70
14689;BME280;7432;48.728;9.154;2023-05-01T02:51:22;144331.09;;;10.24;84.95
14689;BME280;7432;48.728;9.154;2023-05-01T02:53:49;144329.88;;;10.24;84.25
14689;BME280;7432;48.728;9.154;2023-05-01T02:56:15;144331.09;;;10.24;84.12
14689;BME280;7432;48.728;9.154;2023-05-01T02:58:43;144320.16;;;10.20;83.87
14689;BME280;7432;48.728;9.154;2023-05-01T03:01:10;144315.34;;;10.18;84.30
14689;BME280;7432;48.728;9.154;2023-05-01T03:03:36;144322.59;;;10.21;84.16
14689;BME280;7432;48.728;9.154;2023-05-01T03:06:03;144322.59;;;10.21;84.89
14689;BME280;7432;48.728;9.154;2023-05-01T03:08:29;144325.03;;;10.22;84.50
14689;BME280;7432;48.728;9.154;2023-05-01T03:10:55;144331.09;;;10.24;84.09
14689;BME280;7432;48.728;9.154;2023-05-01T03:13:22;144332.25;;;10.25;83.92
14689;BME280;7432;48.728;9.154;2023-05-01T03:15:49;144325.03;;;10.22;84.51
14689;BME280;7432;48.728;9.154;2023-05-01T03:18:16;144327.44;;;10.23;83.67
14689;BME280;7432;48.728;9.154;2023-05-01T03:20:50;144331.09;;;10.24;83.91
14689;BME280;7432;48.728;9.154;2023-05-01T03:23:16;144325.03;;;10.22;84.29
14689;BME280;7432;48.728;9.154;2023-05-01T03:25:42;144331.09;;;10.24;84.17
14689;BME280;7432;48.728;9.154;2023-05-01T03:28:09;144326.22;;;10.22;84.12
14689;BME280;7432;48.728;9.154;2023-05-01T03:30:35;144325.03;;;10.22;84.77
14689;BME280;7432;48.728;9.154;2023-05-01T03:33:03;144331.09;;;10.24;84.80
14689;BME280;7432;48.728;9.154;2023-05-01T03:35:29;144328.66;;;10.23;84.07
14689;BME280;7432;48.728;9.154;2023-05-01T03:37:56;144315.34;;;10.18;84.68
14689;BME280;7432;48.728;9.154;2023-05-01T03:40:22;144317.78;;;10.19;84.55
14689;BME280;7432;48.728;9.154;2023-05-01T03:42:48;144329.88;;;10.24;84.26
14689;BME280;7432;48.728;9.154;2023-05-01T03:45:15;144334.69;;;10.26;84.15
14689;BME280;7432;48.728;9.154;2023-05-01T03:47:41;144340.75;;;10.28;84.06
14689;BME280;7432;48.728;9.154;2023-05-01T03:50:09;144333.47;;;10.25;84.81
14689;BME280;7432;48.728;9.154;2023-05-01T03:52:37;144345.56;;;10.30;83.75
14689;BME280;7432;48.728;9.154;2023-05-01T03:55:04;144349.22;;;10.32;83.98
14689;BME280;7432;48.728;9.154;2023-05-01T03:57:31;144358.88;;;10.36;84.89
14689;BME280;7432;48.728;9.154;2023-05-01T03:59:58;144356.47;;;10.35;84.48
14689;BME280;7432;48.728;9.154;2023-05-01T04:02:24;144350.44;;;10.32;85.00
14689;BME280;7432;48.728;9.154;2023-05-01T04:04:51;144340.75;;;10.28;84.97
14689;BME280;7432;48.728;9.154;2023-05-01T04:07:19;144339.50;;;10.28;84.92
14689;BME280;7432;48.728;9.154;2023-05-01T04:09:45;144340.75;;;10.28;85.29
14689;BME280;7432;48.728;9.154;2023-05-01T04:12:12;144341.94;;;10.29;84.34
14689;BME280;7432;48.728;9.154;2023-05-01T04:14:38;144344.38;;;10.30;84.19
14689;BME280;7432;48.728;9.154;2023-05-01T04:17:05;144344.38;;;10.30;84.21
14689;BME280;7432;48.728;9.154;2023-05-01T04:19:31;144340.75;;;10.28;84.92
14689;BME280;7432;48.728;9.154;2023-05-01T04:21:58;144338.34;;;10.27;85.43
14689;BME280;7432;48.728;9.154;2023-05-01T04:24:26;144357.69;;;10.35;84.63
14689;BME280;7432;48.728;9.154;2023-05-01T04:26:53;144354.03;;;10.34;85.27
14689;BME280;7432;48.728;9.154;2023-05-01T04:29:19;144357.69;;;10.35;84.80
14689;BME280;7432;48.728;9.154;2023-05-01T04:31:45;144371.00;;;10.41;85.02
14689;BME280;7432;48.728;9.154;2023-05-01T04:34:12;144364.91;;;10.38;85.49
14689;BME280;7432;48.728;9.154;2023-05-01T04:36:38;144361.31;;;10.37;84.83
14689;BME280;7432;48.728;9.154;2023-05-01T04:39:05;144360.09;;;10.36;85.77
14689;BME280;7432;48.728;9.154;2023-05-01T04:41:32;144362.53;;;10.37;85.45
14689;BME280;7432;48.728;9.154;2023-05-01T04:43:59;144373.41;;;10.42;86.01
14689;BME280;7432;48.728;9.154;2023-05-01T04:46:25;144385.50;;;10.47;86.22
14689;BME280;7432;48.728;9.154;2023-05-01T04:48:51;144387.94;;;10.48;86.12
14689;BME280;7432;48.728;9.154;2023-05-01T04:51:18;144387.94;;;10.48;86.09
14689;BME280;7432;48.728;9.154;2023-05-01T04:53:45;144393.97;;;10.50;86.09
14689;BME280;7432;48.728;9.154;2023-05-01T04:56:11;144407.28;;;10.56;85.65
14689;BME280;7432;48.728;9.154;2023-05-01T04:58:39;144393.97;;;10.50;85.55
14689;BME280;7432;48.728;9.154;2023-05-01T05:01:06;144403.69;;;10.54;84.16
14689;BME280;7432;48.728;9.154;2023-05-01T05:03:32;144412.13;;;10.58;84.77
14689;BME280;7432;48.728;9.154;2023-05-01T05:05:59;144430.31;;;10.65;84.62
14689;BME280;7432;48.728;9.154;2023-05-01T05:08:25;144425.44;;;10.63;83.76
14689;BME280;7432;48.728;9.154;2023-05-01T05:10:56;144414.56;;;10.59;83.78
14689;BME280;7432;48.728;9.154;2023-05-01T05:13:23;144423.03;;;10.62;83.75
14689;BME280;7432;48.728;9.154;2023-05-01T05:15:50;144410.91;;;10.57;83.84
14689;BME280;7432;48.728;9.154;2023-05-01T05:18:17;144427.88;;;10.64;84.21
14689;BME280;7432;48.728;9.154;2023-05-01T05:20:43;144433.91;;;10.67;83.74
14689;BME280;7432;48.728;9.154;2023-05-01T05:23:10;144437.53;;;10.68;84.20
14689;BME280;7432;48.728;9.154;2023-05-01T05:25:36;144439.97;;;10.69;84.54
14689;BME280;7432;48.728;9.154;2023-05-01T05:28:03;144444.78;;;10.71;84.64
14689;BME280;7432;48.728;9.154;2023-05-01T05:30:29;144448.44;;;10.73;85.07
14689;BME280;7432;48.728;9.154;2023-05-01T05:32:57;144454.50;;;10.76;85.37
14689;BME280;7432;48.728;9.154;2023-05-01T05:35:24;144447.22;;;10.73;85.56
14689;BME280;7432;48.728;9.154;2023-05-01T05:37:51;144453.28;;;10.75;86.19
14689;BME280;7432;48.728;9.154;2023-05-01T05:40:18;144446.00;;;10.72;86.50
14689;BME280;7432;48.728;9.154;2023-05-01T05:42:45;144425.44;;;10.63;88.30
14689;BME280;7432;48.728;9.154;2023-05-01T05:45:11;144413.34;;;10.58;89.41
14689;BME280;7432;48.728;9.154;2023-05-01T05:47:37;144410.91;;;10.57;89.14
14689;BME280;7432;48.728;9.154;2023-05-01T05:50:07;144406.06;;;10.55;89.70
14689;BME280;7432;48.728;9.154;2023-05-01T05:52:34;144402.47;;;10.54;90.37
14689;BME280;7432;48.728;9.154;2023-05-01T05:55:00;144398.81;;;10.52;90.24
14689;BME280;7432;48.728;9.154;2023-05-01T05:57:26;144397.59;;;10.52;90.68
14689;BME280;7432;48.728;9.154;2023-05-01T05:59:53;144409.72;;;10.57;90.09
14689;BME280;7432;48.728;9.154;2023-05-01T06:02:19;144389.16;;;10.48;91.17
14689;BME280;7432;48.728;9.154;2023-05-01T06:04:46;144389.16;;;10.48;90.77
14689;BME280;7432;48.728;9.154;2023-05-01T06:07:14;144403.69;;;10.54;89.25
14689;BME280;7432;48.728;9.154;2023-05-01T06:09:41;144431.47;;;10.66;89.07
14689;BME280;7432;48.728;9.154;2023-05-01T06:12:07;144448.44;;;10.73;83.01
14689;BME280;7432;48.728;9.154;2023-05-01T06:14:34;144449.66;;;10.74;84.18
14689;BME280;7432;48.728;9.154;2023-05-01T06:17:00;144466.59;;;10.81;81.18
14689;BME280;7432;48.728;9.154;2023-05-01T06:19:26;144475.06;;;10.84;77.00
14689;BME280;7432;48.728;9.154;2023-05-01T06:21:53;144484.75;;;10.88;77.82
14689;BME280;7432;48.728;9.154;2023-05-01T06:24:21;144515.03;;;11.01;78.68
14689;BME280;7432;48.728;9.154;2023-05-01T06:26:47;144550.09;;;11.15;78.67
14689;BME280;7432;48.728;9.154;2023-05-01T06:29:13;144577.97;;;11.27;79.14
14689;BME280;7432;48.728;9.154;2023-05-01T06:31:40;144604.59;;;11.38;79.13
14689;BME280;7432;48.728;9.154;2023-05-01T06:34:07;144611.88;;;11.41;75.98
14689;BME280;7432;48.728;9.154;2023-05-01T06:36:33;144561.03;;;11.20;75.84
14689;BME280;7432;48.728;9.154;2023-05-01T06:38:59;144587.66;;;11.31;76.44
14689;BME280;7432;48.728;9.154;2023-05-01T06:41:27;144570.69;;;11.24;76.29
14689;BME280;7432;48.728;9.154;2023-05-01T06:43:54;144598.56;;;11.36;79.77
14689;BME280;7432;48.728;9.154;2023-05-01T06:46:20;144611.88;;;11.41;80.34
14689;BME280;7432;48.728;9.154;2023-05-01T06:48:46;144608.22;;;11.40;77.08
14689;BME280;7432;48.728;9.154;2023-05-01T06:51:13;144598.56;;;11.36;77.26
14689;BME280;7432;48.728;9.154;2023-05-01T06:53:40;144600.94;;;11.37;77.44
14689;BME280;7432;48.728;9.154;2023-05-01T06:56:06;144637.28;;;11.52;78.52
14689;BME280;7432;48.728;9.154;2023-05-01T06:58:34;144693.03;;;11.75;76.04
14689;BME280;7432;48.728;9.154;2023-05-01T07:01:00;144689.41;;;11.73;75.35
14689;BME280;7432;48.728;9.154;2023-05-01T07:03:27;144754.84;;;12.01;77.43
14689;BME280;7432;48.728;9.154;2023-05-01T07:05:53;144770.59;;;12.07;74.83
14689;BME280;7432;48.728;9.154;2023-05-01T07:08:20;144806.94;;;12.22;74.98
14689;BME280;7432;48.728;9.154;2023-05-01T07:10:48;144819.03;;;12.27;73.90
14689;BME280;7432;48.728;9.154;2023-05-01T07:13:15;144836.03;;;12.34;75.15
14689;BME280;7432;48.728;9.154;2023-05-01T07:15:43;144871.13;;;12.49;76.38
14689;BME280;7432;48.728;9.154;2023-05-01T07:18:09;144918.41;;;12.69;76.35
14689;BME280;7432;48.728;9.154;2023-05-01T07:20:36;144939.03;;;12.77;76.23
14689;BME280;7432;48.728;9.154;2023-05-01T07:23:03;144956.00;;;12.84;73.46
14689;BME280;7432;48.728;9.154;2023-05-01T07:25:29;144940.25;;;12.78;72.84
14689;BME280;7432;48.728;9.154;2023-05-01T07:27:56;144952.38;;;12.83;73.51
14689;BME280;7432;48.728;9.154;2023-05-01T07:30:25;144987.53;;;12.97;72.50
14689;BME280;7432;48.728;9.154;2023-05-01T07:32:52;144981.50;;;12.95;71.66
14689;BME280;7432;48.728;9.154;2023-05-01T07:35:18;145022.72;;;13.12;72.01
14689;BME280;7432;48.728;9.154;2023-05-01T07:37:45;145040.91;;;13.20;70.75
14689;BME280;7432;48.728;9.154;2023-05-01T07:40:11;145048.19;;;13.23;71.32
14689;BME280;7432;48.728;9.154;2023-05-01T07:42:38;145085.81;;;13.38;72.21
14689;BME280;7432;48.728;9.154;2023-05-01T07:45:05;145107.59;;;13.47;70.03
14689;BME280;7432;48.728;9.154;2023-05-01T07:47:32;145100.31;;;13.44;69.69
14689;BME280;7432;48.728;9.154;2023-05-01T07:49:59;145127.00;;;13.55;71.32
14689;BME280;7432;48.728;9.154;2023-05-01T07:52:26;145140.34;;;13.61;72.40
14689;BME280;7432;48.728;9.154;2023-05-01T07:54:52;145150.09;;;13.65;71.38
14689;BME280;7432;48.728;9.154;2023-05-01T07:57:18;145104.00;;;13.46;70.08
14689;BME280;7432;48.728;9.154;2023-05-01T07:59:45;145085.81;;;13.38;69.88
14689;BME280;7432;48.728;9.154;2023-05-01T08:02:11;145105.22;;;13.46;69.25
14689;BME280;7432;48.728;9.154;2023-05-01T08:04:38;145113.66;;;13.50;71.22
14689;BME280;7432;48.728;9.154;2023-05-01T08:07:06;145147.63;;;13.64;70.54
14689;BME280;7432;48.728;9.154;2023-05-01T08:09:33;145145.25;;;13.63;69.76
14689;BME280;7432;48.728;9.154;2023-05-01T08:11:59;145168.28;;;13.73;70.26
14689;BME280;7432;48.728;9.154;2023-05-01T08:14:28;145179.16;;;13.77;70.93
14689;BME280;7432;48.728;9.154;2023-05-01T08:16:54;145218.03;;;13.93;70.04
14689;BME280;7432;48.728;9.154;2023-05-01T08:19:20;145165.81;;;13.72;68.38
14689;BME280;7432;48.728;9.154;2023-05-01T08:21:47;145203.47;;;13.87;68.43
14689;BME280;7432;48.728;9.154;2023-05-01T08:24:15;145298.09;;;14.26;68.98
14689;BME280;7432;48.728;9.154;2023-05-01T08:26:41;145407.41;;;14.72;68.94
14689;BME280;7432;48.728;9.154;2023-05-01T08:29:08;145526.41;;;15.21;66.22
14689;BME280;7432;48.728;9.154;2023-05-01T08:31:35;145680.72;;;15.85;65.44
14689;BME280;7432;48.728;9.154;2023-05-01T08:34:03;145777.94;;;16.26;62.62
14689;BME280;7432;48.728;9.154;2023-05-01T08:36:29;145869.19;;;16.64;61.14
14689;BME280;7432;48.728;9.154;2023-05-01T08:38:57;145927.53;;;16.88;60.42
14689;BME280;7432;48.728;9.154;2023-05-01T08:41:26;146024.84;;;17.28;59.70
14689;BME280;7432;48.728;9.154;2023-05-01T08:43:55;146082.00;;;17.52;58.43
14689;BME280;7432;48.728;9.154;2023-05-01T08:46:25;146088.13;;;17.54;56.75
14689;BME280;7432;48.728;9.154;2023-05-01T08:48:56;146186.69;;;17.95;57.60
14689;BME280;7432;48.728;9.154;2023-05-01T08:51:24;146191.56;;;17.97;55.49
14689;BME280;7432;48.728;9.154;2023-05-01T08:53:51;146250.00;;;18.21;55.71
14689;BME280;7432;48.728;9.154;2023-05-01T08:56:19;146279.19;;;18.33;55.88
14689;BME280;7432;48.728;9.154;2023-05-01T08:58:49;146318.19;;;18.50;56.08
14689;BME280;7432;48.728;9.154;2023-05-01T09:01:17;146334.03;;;18.56;55.51
14689;BME280;7432;48.728;9.154;2023-05-01T09:03:45;146334.03;;;18.56;55.45
14689;BME280;7432;48.728;9.154;2023-05-01T09:06:12;146346.19;;;18.61;55.29
14689;BME280;7432;48.728;9.154;2023-05-01T09:08:39;146353.50;;;18.64;55.24
14689;BME280;7432;48.728;9.154;2023-05-01T09:11:05;146373.00;;;18.72;55.55
14689;BME280;7432;48.728;9.154;2023-05-01T09:13:32;146411.94;;;18.88;55.73
14689;BME280;7432;48.728;9.154;2023-05-01T09:16:00;146405.88;;;18.86;54.16
14689;BME280;7432;48.728;9.154;2023-05-01T09:18:26;146393.69;;;18.81;54.63
14689;BME280;7432;48.728;9.154;2023-05-01T09:20:53;146390.06;;;18.79;55.27
14689;BME280;7432;48.728;9.154;2023-05-01T09:23:19;146377.84;;;18.74;54.09
14689;BME280;7432;48.728;9.154;2023-05-01T09:25:46;146273.09;;;18.31;54.24
14689;BME280;7432;48.728;9.154;2023-05-01T09:28:12;146370.59;;;18.71;54.95
14689;BME280;7432;48.728;9.154;2023-05-01T09:30:38;146429.03;;;18.96;54.43
14689;BME280;7432;48.728;9.154;2023-05-01T09:33:11;146660.56;;;19.91;52.76
14689;BME280;7432;48.728;9.154;2023-05-01T09:35:48;146934.91;;;21.05;50.34
14689;BME280;7432;48.728;9.154;2023-05-01T09:38:17;147277.91;;;22.47;47.44
14689;BME280;7432;48.728;9.154;2023-05-01T09:40:43;147649.34;;;24.00;43.58
14689;BME280;7432;48.728;9.154;2023-05-01T09:43:10;147805.91;;;24.64;41.14
14689;BME280;7432;48.728;9.154;2023-05-01T09:45:37;147767.97;;;24.49;40.34
14689;BME280;7432;48.728;9.154;2023-05-01T09:48:07;147797.34;;;24.61;39.72
14689;BME280;7432;48.728;9.154;2023-05-01T09:50:37;147671.41;;;24.09;40.46
14689;BME280;7432;48.728;9.154;2023-05-01T09:53:06;147503.94;;;23.40;42.09
14689;BME280;7432;48.728;9.154;2023-05-01T09:55:33;147404.97;;;22.99;42.63
14689;BME280;7432;48.728;9.154;2023-05-01T09:58:00;147358.53;;;22.80;42.91
14689;BME280;7432;48.728;9.154;2023-05-01T10:00:27;147216.84;;;22.21;44.53
14689;BME280;7432;48.728;9.154;2023-05-01T10:02:54;147136.34;;;21.88;43.60
14689;BME280;7432;48.728;9.154;2023-05-01T10:05:20;146997.19;;;21.31;44.22
14689;BME280;7432;48.728;9.154;2023-05-01T10:07:56;146932.44;;;21.04;44.81
14689;BME280;7432;48.728;9.154;2023-05-01T10:10:24;146753.25;;;20.30;46.10
14689;BME280;7432;48.728;9.154;2023-05-01T10:12:50;146715.38;;;20.14;48.42
14689;BME280;7432;48.728;9.154;2023-05-01T10:15:17;146611.78;;;19.71;47.17
14689;BME280;7432;48.728;9.154;2023-05-01T10:17:45;146563.03;;;19.51;48.00
14689;BME280;7432;48.728;9.154;2023-05-01T10:20:15;146530.09;;;19.37;47.43
14689;BME280;7432;48.728;9.154;2023-05-01T10:22:41;146547.22;;;19.44;47.70
14689;BME280;7432;48.728;9.154;2023-05-01T10:25:11;146592.31;;;19.63;47.61
14689;BME280;7432;48.728;9.154;2023-05-01T10:27:38;146630.06;;;19.79;47.49
14689;BME280;7432;48.728;9.154;2023-05-01T10:30:06;146542.38;;;19.42;49.24
14689;BME280;7432;48.728;9.154;2023-05-01T10:32:34;146636.16;;;19.81;49.35
14689;BME280;7432;48.728;9.154;2023-05-01T10:35:06;146554.53;;;19.47;48.50
14689;BME280;7432;48.728;9.154;2023-05-01T10:37:38;146499.66;;;19.25;49.11
14689;BME280;7432;48.728;9.154;2023-05-01T10:40:49;146626.44;;;19.77;47.99
14689;BME280;7432;48.728;9.154;2023-05-01T10:43:18;146609.34;;;19.70;49.46
14689;BME280;7432;48.728;9.154;2023-05-01T10:45:46;146650.78;;;19.87;50.34
14689;BME280;7432;48.728;9.154;2023-05-01T10:48:55;146760.50;;;20.33;48.43
14689;BME280;7432;48.728;9.154;2023-05-01T10:51:23;146769.06;;;20.36;49.07
14689;BME280;7432;48.728;9.154;2023-05-01T10:54:20;146682.47;;;20.00;49.32
14689;BME280;7432;48.728;9.154;2023-05-01T10:56:48;146648.34;;;19.86;49.42
14689;BME280;7432;48.728;9.154;2023-05-01T10:59:15;146538.69;;;19.41;49.36
14689;BME280;7432;48.728;9.154;2023-05-01T11:01:42;146475.31;;;19.15;51.40
14689;BME280;7432;48.728;9.154;2023-05-01T11:07:13;146331.56;;;18.55;52.15
14689;BME280;7432;48.728;9.154;2023-05-01T11:09:42;146263.38;;;18.27;52.83
14689;BME280;7432;48.728;9.154;2023-05-01T11:12:11;146288.94;;;18.38;52.08
14689;BME280;7432;48.728;9.154;2023-05-01T11:15:01;146264.63;;;18.27;53.51
14689;BME280;7432;48.728;9.154;2023-05-01T11:17:44;146232.94;;;18.14;53.78
14689;BME280;7432;48.728;9.154;2023-05-01T11:20:11;146148.97;;;17.80;54.19
14689;BME280;7432;48.728;9.154;2023-05-01T11:22:39;146123.41;;;17.69;53.36
14689;BME280;7432;48.728;9.154;2023-05-01T11:25:17;146066.22;;;17.45;54.83
14689;BME280;7432;48.728;9.154;2023-05-01T11:27:47;146046.75;;;17.37;55.06
14689;BME280;7432;48.728;9.154;2023-05-01T11:30:13;146017.53;;;17.25;56.29
14689;BME280;7432;48.728;9.154;2023-05-01T11:32:42;145990.75;;;17.14;56.17
14689;BME280;7432;48.728;9.154;2023-05-01T11:35:15;145962.78;;;17.02;56.53
14689;BME280;7432;48.728;9.154;2023-05-01T11:37:43;145981.06;;;17.10;56.83
14689;BME280;7432;48.728;9.154;2023-05-01T11:40:18;145978.63;;;17.09;56.88
14689;BME280;7432;48.728;9.154;2023-05-01T11:42:47;145943.31;;;16.94;57.56
14689;BME280;7432;48.728;9.154;2023-05-01T11:45:14;145959.16;;;17.01;57.47
14689;BME280;7432;48.728;9.154;2023-05-01T11:47:40;145977.38;;;17.08;57.00
14689;BME280;7432;48.728;9.154;2023-05-01T11:50:08;145948.22;;;16.96;57.97
14689;BME280;7432;48.728;9.154;2023-05-01T11:52:42;145883.75;;;16.70;57.77
14689;BME280;7432;48.728;9.154;2023-05-01T11:55:09;145861.88;;;16.61;58.05
14689;BME280;7432;48.728;9.154;2023-05-01T11:57:47;145807.13;;;16.38;58.66
14689;BME280;7432;48.728;9.154;2023-05-01T12:00:15;145808.34;;;16.38;59.22
14689;BME280;7432;48.728;9.154;2023-05-01T12:02:54;145786.44;;;16.29;60.07
14689;BME280;7432;48.728;9.154;2023-05-01T12:05:22;145785.22;;;16.29;61.08
14689;BME280;7432;48.728;9.154;2023-05-01T12:07:49;145801.03;;;16.35;61.49
14689;BME280;7432;48.728;9.154;2023-05-01T12:10:15;145797.38;;;16.34;61.53
14689;BME280;7432;48.728;9.154;2023-05-01T12:12:43;145808.34;;;16.38;61.67
14689;BME280;7432;48.728;9.154;2023-05-01T12:15:11;145798.59;;;16.34;63.62
14689;BME280;7432;48.728;9.154;2023-05-01T12:17:38;145790.13;;;16.31;63.90
14689;BME280;7432;48.728;9.154;2023-05-01T12:20:05;145809.56;;;16.39;64.70
14689;BME280;7432;48.728;9.154;2023-05-01T12:22:32;145821.72;;;16.44;62.61
14689;BME280;7432;48.728;9.154;2023-05-01T12:24:59;145844.84;;;16.53;62.19
14689;BME280;7432;48.728;9.154;2023-05-01T12:27:26;145871.59;;;16.65;62.94
14689;BME280;7432;48.728;9.154;2023-05-01T12:29:52;145843.63;;;16.53;61.64
14689;BME280;7432;48.728;9.154;2023-05-01T12:32:28;145888.63;;;16.72;61.79
14689;BME280;7432;48.728;9.154;2023-05-01T12:34:55;145939.69;;;16.93;63.12
14689;BME280;7432;48.728;9.154;2023-05-01T12:37:21;145922.66;;;16.86;61.52
14689;BME280;7432;48.728;9.154;2023-05-01T12:39:47;145996.84;;;17.16;59.95
14689;BME280;7432;48.728;9.154;2023-05-01T12:42:14;146033.38;;;17.32;58.64
14689;BME280;7432;48.728;9.154;2023-05-01T12:44:42;146105.19;;;17.61;58.69
14689;BME280;7432;48.728;9.154;2023-05-01T12:47:09;146142.88;;;17.77;58.10
14689;BME280;7432;48.728;9.154;2023-05-01T12:49:38;146128.28;;;17.71;57.79
14689;BME280;7432;48.728;9.154;2023-05-01T12:52:06;146142.88;;;17.77;57.25
14689;BME280;7432;48.728;9.154;2023-05-01T12:54:34;146166.03;;;17.87;57.29
14689;BME280;7432;48.728;9.154;2023-05-01T12:57:06;146099.09;;;17.59;58.48
14689;BME280;7432;48.728;9.154;2023-05-01T12:59:34;146041.84;;;17.35;59.41
14689;BME280;7432;48.728;9.154;2023-05-01T13:02:02;145943.31;;;16.94;59.98
14689;BME280;7432;48.728;9.154;2023-05-01T13:04:29;145970.09;;;17.05;61.52
14689;BME280;7432;48.728;9.154;2023-05-01T13:06:57;145948.22;;;16.96;61.76
14689;BME280;7432;48.728;9.154;2023-05-01T13:09:25;145865.50;;;16.62;64.22
14689;BME280;7432;48.728;9.154;2023-05-01T13:11:59;145818.03;;;16.42;64.41